Terminal Aerodrome Forecast
Issued by NWS Buffalo, NY

Home | Current Version | Previous Version | Text Only | Print | Product List | Glossary On
Versions: 1 2 3 4 5 6 7 8 9 10 11 12 13 14 15 16 17 18 19 20 21 22 23 24 25 26 27 28
573
FTUS41 KBUF 061357 AAA
TAFROC
TAF AMD
KROC 061357Z 0614/0712 22010KT P6SM OVC060
     FM061500 25014G20KT 3SM -SHSN OVC030
     FM061700 24014G20KT P6SM BKN060
     FM062200 25013KT P6SM SCT200
     FM070600 22006KT P6SM SCT200=

USA.gov is the U.S. government's official web portal to all federal, state and local government web resources and services.